createdAt,value
2022-12-25T00:00:00.950Z,990.3867
2022-12-25T00:01:01.250Z,990.1313
2022-12-25T00:02:01.244Z,990.0745
2022-12-25T00:03:00.544Z,989.9834
2022-12-25T00:04:00.820Z,989.9629
2022-12-25T00:05:00.692Z,990.1752
2022-12-25T00:06:00.867Z,990.0177
2022-12-25T00:07:00.996Z,989.9894
2022-12-25T00:08:01.141Z,989.9905
2022-12-25T00:09:00.284Z,990.1596
2022-12-25T00:10:00.409Z,989.9894
2022-12-25T00:11:00.576Z,990.3583
2022-12-25T00:12:00.734Z,990.188
2022-12-25T00:13:00.882Z,990.2183
2022-12-25T00:14:01.008Z,990.0355
2022-12-25T00:15:01.158Z,990.0557
2022-12-25T00:16:00.349Z,990.0344
2022-12-25T00:17:00.438Z,990.0273
2022-12-25T00:18:00.609Z,990.1332
2022-12-25T00:19:00.758Z,990.0557
2022-12-25T00:20:00.887Z,989.9291
2022-12-25T00:21:01.064Z,989.8809
2022-12-25T00:22:01.177Z,990.002
2022-12-25T00:23:00.327Z,990.1449
2022-12-25T00:24:00.466Z,990.0961
2022-12-25T00:25:00.621Z,989.8426
2022-12-25T00:26:00.783Z,989.9015
2022-12-25T00:27:00.917Z,990.0729
2022-12-25T00:28:01.062Z,990.1945
2022-12-25T00:29:01.224Z,990.1887
2022-12-25T00:30:00.373Z,990.1615
2022-12-25T00:31:00.564Z,990.2481
2022-12-25T00:32:00.736Z,990.0373
2022-12-25T00:33:00.816Z,990.0237
2022-12-25T00:34:00.963Z,989.9126
2022-12-25T00:35:01.105Z,990.0833
2022-12-25T00:36:01.277Z,989.9358
2022-12-25T00:37:00.412Z,989.9298
2022-12-25T00:38:00.560Z,989.8109
2022-12-25T00:39:00.704Z,989.925
2022-12-25T00:40:00.855Z,990.0956
2022-12-25T00:41:01.030Z,989.8986
2022-12-25T00:42:01.166Z,989.9838
2022-12-25T00:43:00.293Z,990.0548
2022-12-25T00:44:00.453Z,989.7953
2022-12-25T00:45:00.604Z,989.9243
2022-12-25T00:46:00.845Z,989.7419
2022-12-25T00:47:00.929Z,989.9545
2022-12-25T00:48:01.066Z,989.8637
2022-12-25T00:49:01.199Z,989.6737
2022-12-25T00:50:00.362Z,989.9282
2022-12-25T00:51:00.528Z,989.8227
2022-12-25T00:52:00.657Z,990.1282
2022-12-25T00:53:00.794Z,990.0861
2022-12-25T00:54:00.947Z,989.8687
2022-12-25T00:55:01.087Z,989.9049
2022-12-25T00:56:01.268Z,989.8981
2022-12-25T00:57:00.387Z,990.0326
2022-12-25T00:58:00.533Z,989.8989
2022-12-25T00:59:00.683Z,990.0187
2022-12-25T01:00:00.841Z,989.8348
2022-12-25T01:01:01.049Z,989.9038
2022-12-25T01:02:01.240Z,989.9388
2022-12-25T01:03:00.527Z,990.0861
2022-12-25T01:04:00.433Z,990.0861
2022-12-25T01:05:00.586Z,990.0861
2022-12-25T01:06:00.744Z,990.1282
2022-12-25T01:07:00.885Z,990.0861
2022-12-25T01:08:01.022Z,990.0861
2022-12-25T01:09:01.166Z,989.932
2022-12-25T01:10:00.301Z,989.7919
2022-12-25T01:11:00.465Z,989.9546
2022-12-25T01:12:00.636Z,989.8424
2022-12-25T01:13:00.762Z,989.9204
2022-12-25T01:14:00.904Z,989.9283
2022-12-25T01:15:01.042Z,990.0421
2022-12-25T01:16:01.243Z,990.0636
2022-12-25T01:17:00.390Z,990.0918
2022-12-25T01:18:05.628Z,990.2328
2022-12-25T01:19:00.646Z,990.2328
2022-12-25T01:20:00.842Z,990.2328
2022-12-25T01:21:00.944Z,990.1198
2022-12-25T01:22:01.103Z,990.0353
2022-12-25T01:23:01.224Z,990.2045
2022-12-25T01:24:00.391Z,990.1054
2022-12-25T01:25:00.525Z,990.1192
2022-12-25T01:26:00.675Z,990.0633
2022-12-25T01:27:00.835Z,990.0915
2022-12-25T01:28:00.973Z,990.0703
2022-12-25T01:29:01.143Z,990.1757
2022-12-25T01:30:01.264Z,990.2458
2022-12-25T01:31:00.449Z,990.097
2022-12-25T01:32:00.632Z,990.1738
2022-12-25T01:33:00.710Z,990.2146
2022-12-25T01:34:00.864Z,990.2274
2022-12-25T01:35:01.021Z,990.2964
2022-12-25T01:36:01.158Z,990.3247
2022-12-25T01:37:00.288Z,990.431
2022-12-25T01:38:00.460Z,990.4106
2022-12-25T01:39:00.580Z,990.5583
2022-12-25T01:40:00.738Z,990.6996
2022-12-25T01:41:00.867Z,990.4124
2022-12-25T01:42:01.030Z,990.3569
2022-12-25T01:43:01.165Z,990.4417
2022-12-25T01:44:00.358Z,990.3569
2022-12-25T01:45:00.488Z,990.4066
2022-12-25T01:46:00.674Z,990.3716
2022-12-25T01:47:00.766Z,990.3559
2022-12-25T01:48:00.893Z,990.3559
2022-12-25T01:49:01.072Z,990.4968
2022-12-25T01:50:01.215Z,990.3716
2022-12-25T01:51:00.346Z,990.3227
2022-12-25T01:52:00.505Z,990.2955
2022-12-25T01:53:00.659Z,990.4307
2022-12-25T01:54:00.794Z,990.3118
2022-12-25T01:55:00.977Z,990.3907
2022-12-25T01:56:01.102Z,990.3492
2022-12-25T01:57:01.258Z,990.652
2022-12-25T01:58:00.405Z,990.6102
2022-12-25T01:59:00.546Z,990.5059
2022-12-25T02:00:00.724Z,990.5276
2022-12-25T02:01:00.885Z,990.4305
2022-12-25T02:02:01.146Z,990.5571
2022-12-25T02:03:01.242Z,990.5367
2022-12-25T02:04:00.312Z,990.3905
2022-12-25T02:05:00.481Z,990.5378
2022-12-25T02:06:00.601Z,990.5942
2022-12-25T02:07:00.751Z,990.6156
2022-12-25T02:08:00.904Z,990.5456
2022-12-25T02:09:01.058Z,990.5882
2022-12-25T02:10:01.253Z,990.6381
2022-12-25T02:11:00.392Z,990.5681
2022-12-25T02:12:00.591Z,990.4431
2022-12-25T02:13:00.654Z,990.5681
2022-12-25T02:14:00.834Z,990.407
2022-12-25T02:15:05.453Z,990.497
2022-12-25T02:16:01.231Z,990.4271
2022-12-25T02:17:01.297Z,990.608
2022-12-25T02:18:00.394Z,990.6214
2022-12-25T02:19:00.543Z,990.4305
2022-12-25T02:20:00.761Z,990.582
2022-12-25T02:21:00.854Z,990.652
2022-12-25T02:22:00.998Z,990.3907
2022-12-25T02:23:01.152Z,990.5577
2022-12-25T02:24:00.321Z,990.381
2022-12-25T02:25:00.459Z,990.3724
2022-12-25T02:26:00.606Z,990.5046
2022-12-25T02:27:00.749Z,990.3355
2022-12-25T02:28:00.898Z,990.4349
2022-12-25T02:29:01.071Z,990.3637
2022-12-25T02:30:01.210Z,990.3559
2022-12-25T02:31:00.356Z,990.5583
2022-12-25T02:32:00.621Z,990.4252
2022-12-25T02:33:00.667Z,990.5583
2022-12-25T02:34:00.791Z,990.4124
2022-12-25T02:35:00.973Z,990.2089
2022-12-25T02:36:01.091Z,990.4221
2022-12-25T02:37:01.244Z,990.2749
2022-12-25T02:38:00.372Z,990.4787
2022-12-25T02:39:00.524Z,990.2906
2022-12-25T02:40:00.815Z,990.3128
2022-12-25T02:41:00.830Z,990.2927
2022-12-25T02:42:00.999Z,990.3429
2022-12-25T02:43:01.125Z,990.617
2022-12-25T02:44:01.268Z,990.7012
2022-12-25T02:45:00.408Z,990.7362
2022-12-25T02:46:00.638Z,990.4821
2022-12-25T02:47:00.719Z,990.3492
2022-12-25T02:48:00.898Z,990.4043
2022-12-25T02:49:01.003Z,990.6921
2022-12-25T02:50:01.148Z,990.6134
2022-12-25T02:51:00.323Z,990.5208
2022-12-25T02:52:00.481Z,990.5962
2022-12-25T02:53:00.639Z,990.6148
2022-12-25T02:54:00.747Z,990.5007
2022-12-25T02:55:00.891Z,990.4378
2022-12-25T02:56:01.045Z,990.4996
2022-12-25T02:57:01.178Z,990.5776
2022-12-25T02:58:00.346Z,990.5339
2022-12-25T02:59:00.491Z,990.4989
2022-12-25T03:00:00.616Z,990.3315
2022-12-25T03:01:00.867Z,990.2975
2022-12-25T03:02:01.042Z,990.3258
2022-12-25T03:03:01.135Z,990.1991
2022-12-25T03:04:01.216Z,990.2564
2022-12-25T03:05:00.373Z,990.2507
2022-12-25T03:06:00.512Z,990.2936
2022-12-25T03:07:00.655Z,990.1249
2022-12-25T03:08:00.824Z,990.3091
2022-12-25T03:09:00.956Z,990.1114
2022-12-25T03:10:01.115Z,990.2594
2022-12-25T03:11:01.251Z,990.2097
2022-12-25T03:12:00.399Z,990.1456
2022-12-25T03:13:00.574Z,990.3559
2022-12-25T03:14:00.708Z,990.3404
2022-12-25T03:15:00.836Z,990.3315
2022-12-25T03:16:01.013Z,990.0412
2022-12-25T03:17:01.212Z,990.2236
2022-12-25T03:18:00.350Z,990.1437
2022-12-25T03:19:00.465Z,990.206
2022-12-25T03:20:00.605Z,990.4225
2022-12-25T03:21:00.774Z,990.1943
2022-12-25T03:22:00.906Z,990.2732
2022-12-25T03:23:01.081Z,990.3943
2022-12-25T03:24:01.198Z,990.4708
2022-12-25T03:25:00.397Z,990.2063
2022-12-25T03:26:00.520Z,990.3629
2022-12-25T03:27:00.656Z,990.2938
2022-12-25T03:28:00.806Z,990.3367
2022-12-25T03:29:00.988Z,990.5339
2022-12-25T03:30:01.103Z,990.4231
2022-12-25T03:31:01.309Z,990.3394
2022-12-25T03:32:00.385Z,990.2695
2022-12-25T03:33:03.601Z,990.2692
2022-12-25T03:34:00.695Z,990.4724
2022-12-25T03:35:00.824Z,990.3179
2022-12-25T03:36:00.964Z,990.5426
2022-12-25T03:37:01.121Z,990.4367
2022-12-25T03:38:00.284Z,990.6112
2022-12-25T03:39:00.431Z,990.4061
2022-12-25T03:40:00.590Z,990.2927
2022-12-25T03:41:00.710Z,990.5253
2022-12-25T03:42:00.857Z,990.2647
2022-12-25T03:43:01.002Z,990.293
2022-12-25T03:44:01.158Z,990.2859
2022-12-25T03:45:00.320Z,990.4126
2022-12-25T03:46:00.551Z,990.1513
2022-12-25T03:47:00.593Z,990.3982
2022-12-25T03:48:00.742Z,990.3417
2022-12-25T03:49:00.906Z,990.4254
2022-12-25T03:50:01.094Z,990.4401
2022-12-25T03:51:01.185Z,990.5243
2022-12-25T03:52:00.326Z,990.3495
2022-12-25T03:53:00.487Z,990.4069
2022-12-25T03:54:00.618Z,990.3933
2022-12-25T03:55:00.808Z,990.4367
2022-12-25T03:56:00.931Z,990.4446
2022-12-25T03:57:01.088Z,990.486
2022-12-25T03:58:01.231Z,990.4724
2022-12-25T03:59:00.376Z,990.6205
2022-12-25T04:00:00.551Z,990.6205
2022-12-25T04:01:00.751Z,990.6284
2022-12-25T04:02:00.952Z,990.6284
2022-12-25T04:03:01.129Z,990.643
2022-12-25T04:04:01.134Z,990.559
2022-12-25T04:05:00.280Z,990.5669
2022-12-25T04:06:00.435Z,990.5329
2022-12-25T04:07:00.571Z,990.5551
2022-12-25T04:08:00.725Z,990.4299
2022-12-25T04:09:00.880Z,990.4443
2022-12-25T04:10:01.017Z,990.5912
2022-12-25T04:11:01.149Z,990.4161
2022-12-25T04:12:02.697Z,990.5629
2022-12-25T04:13:00.450Z,990.4435
2022-12-25T04:14:00.601Z,990.5901
2022-12-25T04:15:00.781Z,990.5122
2022-12-25T04:16:00.991Z,990.5404
2022-12-25T04:17:01.071Z,990.421
2022-12-25T04:18:01.216Z,990.4281
2022-12-25T04:19:00.429Z,990.2936
2022-12-25T04:20:00.509Z,990.2086
2022-12-25T04:21:00.647Z,990.5111
2022-12-25T04:22:00.787Z,990.6098
2022-12-25T04:23:00.943Z,990.5182
2022-12-25T04:24:01.116Z,990.5669
2022-12-25T04:25:01.232Z,990.4339
2022-12-25T04:26:00.406Z,990.7843
2022-12-25T04:27:00.533Z,990.6721
2022-12-25T04:28:00.690Z,990.6713
2022-12-25T04:29:00.840Z,990.5865
2022-12-25T04:30:00.966Z,990.6996
2022-12-25T04:31:01.193Z,990.6713
2022-12-25T04:32:01.255Z,990.6148
2022-12-25T04:33:00.435Z,990.6148
2022-12-25T04:34:00.556Z,990.5583
2022-12-25T04:35:00.704Z,990.5583
2022-12-25T04:36:00.848Z,990.6713
2022-12-25T04:37:00.995Z,990.5583
2022-12-25T04:38:01.176Z,990.5865
2022-12-25T04:39:00.315Z,990.6218
2022-12-25T04:40:00.432Z,990.7134
2022-12-25T04:41:00.628Z,990.6284
2022-12-25T04:42:00.751Z,990.4106
2022-12-25T04:43:00.908Z,990.6355
2022-12-25T04:44:01.038Z,990.5075
2022-12-25T04:45:01.190Z,990.8537
2022-12-25T04:46:00.373Z,990.6205
2022-12-25T04:47:02.547Z,990.6488
2022-12-25T04:48:00.635Z,990.7689
2022-12-25T04:49:00.786Z,990.5993
2022-12-25T04:50:00.931Z,990.8038
2022-12-25T04:51:01.099Z,990.6831
2022-12-25T04:52:01.243Z,990.6549
2022-12-25T04:53:00.382Z,990.6127
2022-12-25T04:54:00.547Z,990.5698
2022-12-25T04:55:00.692Z,990.6753
2022-12-25T04:56:00.840Z,990.6677
2022-12-25T04:57:00.977Z,990.5902
2022-12-25T04:58:01.127Z,990.6112
2022-12-25T04:59:00.280Z,990.6813
2022-12-25T05:00:00.419Z,990.7515
2022-12-25T05:01:00.572Z,990.5536
2022-12-25T05:02:00.887Z,990.5955
2022-12-25T05:03:00.954Z,990.7937
2022-12-25T05:04:01.007Z,990.5955
2022-12-25T05:05:01.150Z,990.5243
2022-12-25T05:06:00.289Z,990.6162
2022-12-25T05:07:00.451Z,990.8568
2022-12-25T05:08:00.618Z,990.8217
2022-12-25T05:09:00.750Z,990.7164
2022-12-25T05:10:00.885Z,990.6813
2022-12-25T05:11:01.042Z,990.696
2022-12-25T05:12:01.174Z,990.7033
2022-12-25T05:13:00.348Z,990.7033
2022-12-25T05:14:00.463Z,990.7036
2022-12-25T05:15:00.627Z,990.6049
2022-12-25T05:16:00.788Z,990.7884
2022-12-25T05:17:00.905Z,990.6753
2022-12-25T05:18:01.073Z,990.7881
2022-12-25T05:19:01.202Z,990.6112
2022-12-25T05:20:00.337Z,990.6112
2022-12-25T05:21:00.518Z,990.7242
2022-12-25T05:22:00.647Z,990.6112
2022-12-25T05:23:00.811Z,990.7028
2022-12-25T05:24:00.940Z,990.6813
2022-12-25T05:25:01.113Z,990.6813
2022-12-25T05:26:01.235Z,990.4902
2022-12-25T05:27:00.368Z,990.3288
2022-12-25T05:28:00.548Z,990.5392
2022-12-25T05:29:00.724Z,990.3561
2022-12-25T05:30:00.823Z,990.4341
2022-12-25T05:31:00.999Z,990.321
2022-12-25T05:32:01.146Z,990.5313
2022-12-25T05:33:00.297Z,990.405
2022-12-25T05:34:00.458Z,990.3982
2022-12-25T05:35:00.620Z,990.3417
2022-12-25T05:36:00.752Z,990.2851
2022-12-25T05:37:00.918Z,990.3346
2022-12-25T05:38:01.051Z,990.2285
2022-12-25T05:39:01.237Z,990.4126
2022-12-25T05:40:00.357Z,990.3142
2022-12-25T05:41:00.498Z,990.2723
2022-12-25T05:42:00.641Z,990.1807
2022-12-25T05:43:00.814Z,990.3356
2022-12-25T05:44:00.974Z,990.1671
2022-12-25T05:45:01.098Z,990.2312
2022-12-25T05:46:01.255Z,990.281
2022-12-25T05:47:00.472Z,990.1826
2022-12-25T05:48:00.563Z,990.2108
2022-12-25T05:49:00.731Z,990.3315
2022-12-25T05:50:00.856Z,990.2964
2022-12-25T05:51:01.011Z,990.2614
2022-12-25T05:52:01.171Z,990.3179
2022-12-25T05:53:06.106Z,990.1633
2022-12-25T05:54:00.572Z,990.4027
2022-12-25T05:55:00.617Z,990.2263
2022-12-25T05:56:00.755Z,990.1633
2022-12-25T05:57:00.895Z,990.2263
2022-12-25T05:58:01.086Z,990.1562
2022-12-25T05:59:01.239Z,990.2263
2022-12-25T06:00:00.389Z,990.1562
2022-12-25T06:01:00.531Z,990.1845
2022-12-25T06:02:00.787Z,990.1214
2022-12-25T06:03:01.077Z,990.0861
2022-12-25T06:04:01.256Z,990.0861
2022-12-25T06:05:01.113Z,990.0861
2022-12-25T06:06:00.265Z,989.8671
2022-12-25T06:07:00.414Z,990.0861
2022-12-25T06:08:00.553Z,990.0861
2022-12-25T06:09:00.745Z,990.0861
2022-12-25T06:10:00.876Z,990.0861
2022-12-25T06:11:01.016Z,989.8035
2022-12-25T06:12:01.157Z,989.8883
2022-12-25T06:13:00.307Z,989.9038
2022-12-25T06:14:00.525Z,990.0597
2022-12-25T06:15:00.623Z,989.7851
2022-12-25T06:16:00.775Z,989.9905
2022-12-25T06:17:00.941Z,990.0549
2022-12-25T06:18:01.052Z,989.9498
2022-12-25T06:19:01.231Z,990.1192
2022-12-25T06:20:00.371Z,989.9642
2022-12-25T06:21:00.511Z,990.1415
2022-12-25T06:22:00.654Z,990.1627
2022-12-25T06:23:00.817Z,990.2056
2022-12-25T06:24:01.087Z,990.0226
2022-12-25T06:25:01.118Z,990.2135
2022-12-25T06:26:01.238Z,990.1784
2022-12-25T06:27:00.395Z,990.1447
2022-12-25T06:28:00.570Z,990.082
2022-12-25T06:29:00.712Z,990.195
2022-12-25T06:30:00.831Z,990.195
2022-12-25T06:31:00.984Z,990.0907
2022-12-25T06:32:01.249Z,989.9778
2022-12-25T06:33:00.292Z,990.0625
2022-12-25T06:34:00.437Z,990.1697
2022-12-25T06:35:00.574Z,990.2818
2022-12-25T06:36:00.725Z,990.0278
2022-12-25T06:37:00.882Z,990.0842
2022-12-25T06:38:01.016Z,990.2397
2022-12-25T06:39:01.171Z,990.2758
2022-12-25T06:40:00.313Z,990.3192
2022-12-25T06:41:00.453Z,990.2134
2022-12-25T06:42:00.612Z,990.2267
2022-12-25T06:43:00.778Z,990.1697
2022-12-25T06:44:00.905Z,990.2047
2022-12-25T06:45:01.057Z,990.3947
2022-12-25T06:46:01.265Z,990.3168
2022-12-25T06:47:00.366Z,990.3448
2022-12-25T06:48:00.509Z,990.2818
2022-12-25T06:49:00.694Z,990.2818
2022-12-25T06:50:00.816Z,990.2818
2022-12-25T06:51:00.950Z,990.2047
2022-12-25T06:52:01.099Z,990.3168
2022-12-25T06:53:01.251Z,990.3361
2022-12-25T06:54:00.397Z,990.3079
2022-12-25T06:55:00.572Z,990.1385
2022-12-25T06:56:00.727Z,990.2362
2022-12-25T06:57:00.842Z,990.1434
2022-12-25T06:58:00.992Z,990.0937
2022-12-25T06:59:01.187Z,990.1434
2022-12-25T07:00:00.289Z,990.1852
2022-12-25T07:01:00.493Z,990.0937
2022-12-25T07:02:00.813Z,990.1219
2022-12-25T07:03:00.865Z,990.1784
2022-12-25T07:04:00.918Z,990.2067
2022-12-25T07:05:01.051Z,990.2349
2022-12-25T07:06:01.218Z,990.0454
2022-12-25T07:07:06.207Z,990.306
2022-12-25T07:08:00.494Z,990.1795
2022-12-25T07:09:00.639Z,990.208
2022-12-25T07:10:00.786Z,990.2642
2022-12-25T07:11:00.969Z,990.3277
2022-12-25T07:12:01.095Z,990.3625
2022-12-25T07:13:01.234Z,990.3196
2022-12-25T07:14:00.388Z,990.5012
2022-12-25T07:15:00.552Z,990.4394
2022-12-25T07:16:00.738Z,990.4247
2022-12-25T07:17:00.917Z,990.6911
2022-12-25T07:18:00.995Z,990.5216
2022-12-25T07:19:01.177Z,990.5917
2022-12-25T07:20:00.308Z,990.5917
2022-12-25T07:21:00.463Z,990.5064
2022-12-25T07:22:00.643Z,990.52
2022-12-25T07:23:00.770Z,990.7031
2022-12-25T07:24:00.891Z,990.5336
2022-12-25T07:25:01.047Z,990.5901
2022-12-25T07:26:01.198Z,990.5901
2022-12-25T07:27:00.373Z,990.4435
2022-12-25T07:28:00.527Z,990.52
2022-12-25T07:29:00.652Z,990.5901
2022-12-25T07:30:00.804Z,990.632
2022-12-25T07:31:00.939Z,990.6244
2022-12-25T07:32:01.129Z,990.5182
2022-12-25T07:33:01.274Z,990.5883
2022-12-25T07:34:00.381Z,990.7082
2022-12-25T07:35:00.524Z,990.5669
2022-12-25T07:36:00.677Z,990.6721
2022-12-25T07:37:00.811Z,990.6302
2022-12-25T07:38:01.003Z,990.8691
2022-12-25T07:39:01.110Z,990.6713
2022-12-25T07:40:01.255Z,990.8409
2022-12-25T07:41:00.466Z,990.9044
2022-12-25T07:42:00.553Z,990.8547
2022-12-25T07:43:00.732Z,990.7414
2022-12-25T07:44:00.849Z,990.7485
2022-12-25T07:45:01.004Z,990.8116
2022-12-25T07:46:01.219Z,990.6556
2022-12-25T07:47:00.325Z,990.8038
2022-12-25T07:48:05.290Z,990.909
2022-12-25T07:49:00.631Z,990.6263
2022-12-25T07:50:00.743Z,990.647
2022-12-25T07:51:00.886Z,990.7881
2022-12-25T07:52:01.041Z,990.7525
2022-12-25T07:53:01.201Z,990.7808
2022-12-25T07:54:00.361Z,990.7593
2022-12-25T07:55:00.499Z,990.6813
2022-12-25T07:56:00.664Z,990.6462
2022-12-25T07:57:00.798Z,990.7096
2022-12-25T07:58:00.966Z,990.6813
2022-12-25T07:59:01.152Z,990.6813
2022-12-25T08:00:01.280Z,990.4273
2022-12-25T08:01:00.455Z,990.5392
2022-12-25T08:02:00.782Z,990.4824
2022-12-25T08:03:00.891Z,990.6939
2022-12-25T08:04:01.039Z,990.6793
2022-12-25T08:05:00.965Z,990.6502
2022-12-25T08:06:01.112Z,990.5937
2022-12-25T08:08:00.370Z,990.557
2022-12-25T08:09:00.527Z,990.3741
2022-12-25T08:10:00.689Z,990.6123
2022-12-25T08:11:00.832Z,990.6123
2022-12-25T08:12:00.971Z,990.4847
2022-12-25T08:13:01.138Z,990.5059
2022-12-25T08:14:00.266Z,990.5478
2022-12-25T08:15:00.409Z,990.4769
2022-12-25T08:16:00.575Z,990.4068
2022-12-25T08:17:00.764Z,990.5675
2022-12-25T08:18:00.883Z,990.4128
2022-12-25T08:19:01.014Z,990.2923
2022-12-25T08:20:01.159Z,990.4393
2022-12-25T08:21:00.294Z,990.2482
2022-12-25T08:22:00.465Z,990.3253
2022-12-25T08:23:00.612Z,990.2902
2022-12-25T08:24:00.740Z,990.2393
2022-12-25T08:25:00.914Z,990.2246
2022-12-25T08:26:05.032Z,990.1535
2022-12-25T08:27:01.186Z,990.0893
2022-12-25T08:28:00.361Z,990.0961
2022-12-25T08:29:00.467Z,990.2502
2022-12-25T08:30:00.610Z,990.1438
2022-12-25T08:31:00.847Z,990.0302
2022-12-25T08:32:00.936Z,990.2072
2022-12-25T08:33:01.127Z,990.256
2022-12-25T08:34:01.272Z,990.1143
2022-12-25T08:35:00.406Z,990.2481
2022-12-25T08:36:00.566Z,990.2405
2022-12-25T08:37:00.701Z,990.2405
2022-12-25T08:38:00.841Z,990.4028
2022-12-25T08:39:03.300Z,990.1478
2022-12-25T08:40:01.142Z,990.2181
2022-12-25T08:41:00.290Z,990.1615
2022-12-25T08:42:00.427Z,990.2318
2022-12-25T08:43:00.627Z,990.1819
2022-12-25T08:44:00.764Z,990.089
2022-12-25T08:45:00.890Z,990.0746
2022-12-25T08:46:01.156Z,989.9465
2022-12-25T08:47:01.171Z,990.0658
2022-12-25T08:48:00.329Z,990.0432
2022-12-25T08:49:00.482Z,990.0138
2022-12-25T08:50:00.628Z,990.0625
2022-12-25T08:51:00.774Z,989.9835
2022-12-25T08:52:00.910Z,990.0677
2022-12-25T08:53:01.096Z,990.1165
2022-12-25T08:54:01.280Z,990.0451
2022-12-25T08:55:00.361Z,989.8673
2022-12-25T08:56:00.510Z,989.9728
2022-12-25T08:57:02.966Z,989.8446
2022-12-25T08:58:00.816Z,989.8937
2022-12-25T08:59:00.947Z,989.8642
2022-12-25T09:00:01.106Z,990.0478
2022-12-25T09:01:01.322Z,990.0177
2022-12-25T09:02:00.453Z,989.9894
2022-12-25T09:03:00.836Z,990.0521
2022-12-25T09:04:00.688Z,989.9309
2022-12-25T09:05:00.833Z,990.0366
2022-12-25T09:06:01.000Z,989.9503
2022-12-25T09:07:01.126Z,989.9072
2022-12-25T09:08:00.296Z,990.0344
2022-12-25T09:09:00.439Z,989.7993
2022-12-25T09:10:00.589Z,990.1679
2022-12-25T09:11:00.768Z,990.2236
2022-12-25T09:12:00.869Z,990.0518
2022-12-25T09:13:01.038Z,990.2351
2022-12-25T09:14:01.182Z,990.157
2022-12-25T09:15:00.338Z,989.9925
2022-12-25T09:16:00.534Z,990.1687
2022-12-25T09:17:00.680Z,989.9542
2022-12-25T09:18:00.775Z,990.0455
2022-12-25T09:19:00.923Z,990.1723
2022-12-25T09:20:01.086Z,989.9864
2022-12-25T09:21:01.229Z,989.9637
2022-12-25T09:22:00.374Z,989.9484
2022-12-25T09:23:00.525Z,990.0895
2022-12-25T09:24:00.663Z,990.0101
2022-12-25T09:25:00.818Z,989.7963
2022-12-25T09:26:00.960Z,989.8156
2022-12-25T09:27:01.175Z,989.9858
2022-12-25T09:28:01.257Z,989.8782
2022-12-25T09:29:00.415Z,989.8481
2022-12-25T09:30:00.577Z,989.954
2022-12-25T09:31:00.757Z,989.8746
2022-12-25T09:32:00.879Z,989.8666
2022-12-25T09:33:00.997Z,989.9504
2022-12-25T09:34:01.147Z,989.906
2022-12-25T09:35:00.314Z,989.699
2022-12-25T09:36:00.465Z,989.8183
2022-12-25T09:37:00.609Z,989.7103
2022-12-25T09:38:00.737Z,989.8941
2022-12-25T09:39:00.937Z,989.8078
2022-12-25T09:40:01.038Z,989.6183
2022-12-25T09:41:01.209Z,989.632
2022-12-25T09:42:00.400Z,989.3961
2022-12-25T09:43:00.495Z,989.4237
2022-12-25T09:44:00.703Z,989.4718
2022-12-25T09:45:00.774Z,989.4706
2022-12-25T09:46:01.014Z,989.4694
2022-12-25T09:47:01.091Z,989.5963
2022-12-25T09:48:01.226Z,989.3958
2022-12-25T09:49:00.409Z,989.501
2022-12-25T09:50:00.546Z,989.4642
2022-12-25T09:51:00.672Z,989.5195
2022-12-25T09:52:00.809Z,989.6176
2022-12-25T09:53:00.993Z,989.7209
2022-12-25T09:54:01.114Z,989.5516
2022-12-25T09:55:01.407Z,989.6213
2022-12-25T09:56:00.441Z,989.6412
2022-12-25T09:57:00.612Z,989.583
2022-12-25T09:58:00.751Z,989.5961
2022-12-25T09:59:00.888Z,989.6598
2022-12-25T10:00:01.083Z,989.7069
2022-12-25T10:01:01.186Z,989.652
2022-12-25T10:02:00.504Z,989.5581
2022-12-25T10:03:00.853Z,989.628
2022-12-25T10:04:00.624Z,989.4477
2022-12-25T10:05:00.797Z,989.4802
2022-12-25T10:06:00.923Z,989.3707
2022-12-25T10:07:01.076Z,989.4258
2022-12-25T10:08:01.215Z,989.3445
2022-12-25T10:09:00.338Z,989.3209
2022-12-25T10:10:00.521Z,989.3475
2022-12-25T10:11:00.652Z,989.239
2022-12-25T10:12:00.822Z,989.2446
2022-12-25T10:13:00.943Z,989.208
2022-12-25T10:14:01.095Z,989.2712
2022-12-25T10:15:01.228Z,989.3421
2022-12-25T10:16:00.471Z,989.3421
2022-12-25T10:17:00.555Z,989.3409
2022-12-25T10:18:00.666Z,989.4969
2022-12-25T10:19:00.815Z,989.3892
2022-12-25T10:20:00.975Z,989.5032
2022-12-25T10:21:01.125Z,989.4814
2022-12-25T10:22:00.289Z,989.5101
2022-12-25T10:23:00.480Z,989.4746
2022-12-25T10:24:00.569Z,989.4814
2022-12-25T10:25:00.724Z,989.5032
2022-12-25T10:26:00.871Z,989.5101
2022-12-25T10:27:01.025Z,989.3669
2022-12-25T10:28:01.235Z,989.4242
2022-12-25T10:29:00.321Z,989.3669
2022-12-25T10:30:00.468Z,989.3233
2022-12-25T10:31:00.678Z,989.2156
2022-12-25T10:32:00.756Z,989.2938
2022-12-25T10:33:00.934Z,989.1792
2022-12-25T10:34:01.076Z,989.0712
2022-12-25T10:35:01.212Z,989.0784
2022-12-25T10:36:00.350Z,989.0426
2022-12-25T10:37:00.501Z,989.0292
2022-12-25T10:38:00.687Z,988.9946
2022-12-25T10:39:00.809Z,989.0239
2022-12-25T10:40:00.937Z,989.0173
2022-12-25T10:41:01.083Z,989.182
2022-12-25T10:42:01.229Z,989.1247
2022-12-25T10:43:00.395Z,989.04
2022-12-25T10:44:00.530Z,989.1328
2022-12-25T10:45:00.681Z,989.182
2022-12-25T10:46:00.879Z,989.1891
2022-12-25T10:47:00.975Z,989.1891
2022-12-25T10:48:06.779Z,989.1166
2022-12-25T10:49:00.274Z,989.2583
2022-12-25T10:50:00.430Z,988.8925
2022-12-25T10:51:00.567Z,989.0059
2022-12-25T10:52:00.736Z,988.9832
2022-12-25T10:53:00.895Z,988.8891
2022-12-25T10:54:01.024Z,988.9601
2022-12-25T10:55:01.181Z,988.995
2022-12-25T10:56:00.328Z,989.081
2022-12-25T10:57:00.464Z,989.0302
2022-12-25T10:58:00.621Z,988.9729
2022-12-25T10:59:00.792Z,988.9293
2022-12-25T11:00:00.906Z,989.0284
2022-12-25T11:01:01.055Z,988.777
2022-12-25T11:02:01.299Z,988.7751
2022-12-25T11:03:00.788Z,988.7037
2022-12-25T11:04:00.596Z,988.6096
2022-12-25T11:05:00.671Z,988.6588
2022-12-25T11:06:00.812Z,988.7084
2022-12-25T11:07:00.961Z,988.7084
2022-12-25T11:08:01.112Z,988.7579
2022-12-25T11:09:01.317Z,988.8495
2022-12-25T11:10:04.617Z,988.7417
2022-12-25T11:11:00.560Z,988.9266
2022-12-25T11:12:00.718Z,988.6189
2022-12-25T11:13:00.904Z,988.582
2022-12-25T11:14:01.023Z,988.6808
2022-12-25T11:15:01.172Z,988.7095
2022-12-25T11:16:00.349Z,988.5729
2022-12-25T11:17:00.468Z,988.6157
2022-12-25T11:18:00.653Z,988.5788
2022-12-25T11:19:00.754Z,988.4928
2022-12-25T11:20:00.926Z,988.378
2022-12-25T11:21:01.080Z,988.3852
2022-12-25T11:22:01.230Z,988.2636
2022-12-25T11:23:00.349Z,988.2714
2022-12-25T11:24:00.501Z,988.3079
2022-12-25T11:25:00.640Z,988.3079
2022-12-25T11:26:00.831Z,988.24
2022-12-25T11:27:00.947Z,988.2737
2022-12-25T11:28:01.085Z,988.2068
2022-12-25T11:29:01.235Z,988.4054
2022-12-25T11:30:00.382Z,988.5214
2022-12-25T11:31:00.591Z,988.4435
2022-12-25T11:32:00.685Z,988.3366
2022-12-25T11:33:00.815Z,988.2401
2022-12-25T11:34:00.969Z,988.2591
2022-12-25T11:35:01.125Z,988.3164
2022-12-25T11:36:00.262Z,988.2738
2022-12-25T11:37:00.436Z,988.3164
2022-12-25T11:38:00.553Z,988.3451
2022-12-25T11:39:00.712Z,988.2728
2022-12-25T11:40:00.863Z,988.0954
2022-12-25T11:41:01.013Z,988.1013
2022-12-25T11:42:01.168Z,988.0716
2022-12-25T11:43:07.642Z,988.0347
2022-12-25T11:44:00.446Z,988.0621
2022-12-25T11:45:00.626Z,988.2032
2022-12-25T11:46:00.752Z,988.0023
2022-12-25T11:47:01.021Z,987.9877